PWSweather.com
Personal Weather Stations
Station Observations
J24K28P63
Vysocina, PocatkyCZ 39464

VysocinaPocatkyCZ 39464

Lat: 49.2594238, Lon: 15.2331769

Elevation: 2011

Station Type: Vantage Pro2+

http://meteo-jirkalina.com

High Low Average
Temperature 65.5°F18.6°C 48.6°F9.2°C 56.0°F13.3°C
Dew Point 59.1°F15.1°C 43.1°F6.2°C 52.5°F11.4°C
Winds 6.0 mph 9.7 kmh Calm Calm 2.0 mph WSW3.2 kmh WSW
Wind Gusts 12.0 mph19.3 kmh -- 4.0 mph6.4 kmh
Humidity 100% 55% 89%
Pressure 29.84 in1010.5 mb 29.76 in1007.8 mb -
Precipitation 0.21 in5.3 mm - -
Hour Temp Dew Point Humidity Winds Wind Gusts Pressure Precip Precip Rate Daily Precip Total
12:00 AM 48.6°F9.2°C 48.1°F8.9°C 98% Calm Calm -- 29.78 in1008.5 mb - 0.00 in0.0 mm 0.01 in0.3 mm
12:30 AM 48.8°F9.3°C 48.3°F9.1°C 98% Calm Calm -- 29.77 in1008.1 mb - 0.00 in0.0 mm 0.02 in0.5 mm
01:00 AM 49.1°F9.5°C 48.6°F9.2°C 98% Calm Calm -- 29.77 in1008.1 mb - 0.01 in0.3 mm 0.02 in0.5 mm
01:30 AM 49.2°F9.6°C 48.9°F9.4°C 99% 0.3 mph S0.5 kmh S 3.0 mph4.8 kmh 29.76 in1007.8 mb - 0.00 in0.0 mm 0.02 in0.5 mm
02:00 AM 49.4°F9.7°C 49.1°F9.5°C 99% Calm Calm -- 29.76 in1007.8 mb - 0.00 in0.0 mm 0.02 in0.5 mm
02:30 AM 49.2°F9.6°C 48.9°F9.4°C 99% Calm Calm -- 29.76 in1007.8 mb - 0.00 in0.0 mm 0.02 in0.5 mm
03:00 AM 49.4°F9.7°C 49.1°F9.5°C 99% 0.5 mph S0.8 kmh S 2.0 mph3.2 kmh 29.76 in1007.8 mb - 0.00 in0.0 mm 0.02 in0.5 mm
03:30 AM 48.9°F9.4°C 48.6°F9.2°C 99% Calm Calm -- 29.76 in1007.8 mb - 0.01 in0.3 mm 0.02 in0.5 mm
04:00 AM 48.9°F9.4°C 48.6°F9.2°C 99% Calm Calm -- 29.76 in1007.8 mb - 0.01 in0.3 mm 0.03 in0.8 mm
04:30 AM 48.9°F9.4°C 48.6°F9.2°C 99% 0.3 mph S0.5 kmh S 1.0 mph1.6 kmh 29.76 in1007.8 mb - 0.00 in0.0 mm 0.03 in0.8 mm
04:50 AM 51.8°F11.0°C 51.5°F10.8°C 99% 5.0 mph NW8.0 kmh NW 7.0 mph11.3 kmh 29.82 in1009.8 mb - 0.02 in0.5 mm 0.05 in1.3 mm
05:00 AM 51.8°F11.0°C 51.5°F10.8°C 99% 2.0 mph NW3.2 kmh NW 5.0 mph8.0 kmh 29.82 in1009.8 mb - 0.02 in0.5 mm 0.06 in1.5 mm
05:10 AM 51.9°F11.1°C 51.6°F10.9°C 99% 3.0 mph NW4.8 kmh NW 3.0 mph4.8 kmh 29.82 in1009.8 mb - 0.02 in0.5 mm 0.08 in2.0 mm
05:20 AM 52.0°F11.1°C 51.7°F10.9°C 99% 1.0 mph NW1.6 kmh NW 3.0 mph4.8 kmh 29.82 in1009.8 mb - 0.02 in0.5 mm 0.09 in2.3 mm
05:30 AM 52.1°F11.2°C 51.8°F11.0°C 99% 2.0 mph NW3.2 kmh NW 5.0 mph8.0 kmh 29.82 in1009.8 mb - 0.00 in0.0 mm 0.09 in2.3 mm
05:40 AM 52.2°F11.2°C 52.2°F11.2°C 100% 3.0 mph NW4.8 kmh NW 3.0 mph4.8 kmh 29.82 in1009.8 mb - 0.01 in0.3 mm 0.10 in2.5 mm
05:50 AM 52.4°F11.3°C 52.4°F11.3°C 100% 3.0 mph WNW4.8 kmh WNW 5.0 mph8.0 kmh 29.82 in1009.8 mb - 0.00 in0.0 mm 0.10 in2.5 mm
06:00 AM 52.3°F11.3°C 52.3°F11.3°C 100% 6.0 mph W9.7 kmh W 7.0 mph11.3 kmh 29.82 in1009.8 mb - 0.00 in0.0 mm 0.10 in2.5 mm
06:10 AM 52.1°F11.2°C 51.8°F11.0°C 99% 5.0 mph W8.0 kmh W 7.0 mph11.3 kmh 29.82 in1009.8 mb - 0.01 in0.3 mm 0.11 in2.8 mm
06:20 AM 52.2°F11.2°C 51.9°F11.1°C 99% 3.0 mph W4.8 kmh W 7.0 mph11.3 kmh 29.82 in1009.8 mb - 0.01 in0.3 mm 0.12 in3.0 mm
06:30 AM 52.3°F11.3°C 52.3°F11.3°C 100% 5.0 mph W8.0 kmh W 8.0 mph12.9 kmh 29.82 in1009.8 mb - 0.00 in0.0 mm 0.12 in3.0 mm
06:40 AM 52.2°F11.2°C 52.2°F11.2°C 100% 5.0 mph W8.0 kmh W 3.0 mph4.8 kmh 29.82 in1009.8 mb - 0.00 in0.0 mm 0.12 in3.0 mm
06:50 AM 52.3°F11.3°C 52.3°F11.3°C 100% 6.0 mph W9.7 kmh W 7.0 mph11.3 kmh 29.82 in1009.8 mb - 0.01 in0.3 mm 0.13 in3.3 mm
07:00 AM 52.6°F11.4°C 52.6°F11.4°C 100% 6.0 mph W9.7 kmh W 8.0 mph12.9 kmh 29.82 in1009.8 mb - 0.01 in0.3 mm 0.13 in3.3 mm
07:10 AM 52.6°F11.4°C 52.6°F11.4°C 100% 5.0 mph W8.0 kmh W 7.0 mph11.3 kmh 29.82 in1009.8 mb - 0.01 in0.3 mm 0.14 in3.6 mm
07:20 AM 52.8°F11.6°C 52.8°F11.6°C 100% 5.0 mph W8.0 kmh W 6.0 mph9.7 kmh 29.82 in1009.8 mb - 0.00 in0.0 mm 0.14 in3.6 mm
07:30 AM 52.9°F11.6°C 52.9°F11.6°C 100% 5.0 mph W8.0 kmh W 8.0 mph12.9 kmh 29.82 in1009.8 mb - 0.01 in0.3 mm 0.15 in3.8 mm
07:40 AM 52.8°F11.6°C 52.8°F11.6°C 100% 5.0 mph W8.0 kmh W 9.0 mph14.5 kmh 29.82 in1009.8 mb - 0.00 in0.0 mm 0.15 in3.8 mm
07:50 AM 52.8°F11.6°C 52.8°F11.6°C 100% 6.0 mph W9.7 kmh W 7.0 mph11.3 kmh 29.82 in1009.8 mb - 0.01 in0.3 mm 0.16 in4.1 mm
08:00 AM 52.7°F11.5°C 52.7°F11.5°C 100% 3.0 mph W4.8 kmh W 7.0 mph11.3 kmh 29.82 in1009.8 mb - 0.00 in0.0 mm 0.16 in4.1 mm
08:10 AM 52.4°F11.3°C 52.4°F11.3°C 100% 2.0 mph W3.2 kmh W 2.0 mph3.2 kmh 29.83 in1010.2 mb - 0.02 in0.5 mm 0.17 in4.3 mm
08:20 AM 52.5°F11.4°C 52.5°F11.4°C 100% 2.0 mph W3.2 kmh W 3.0 mph4.8 kmh 29.82 in1009.8 mb - 0.01 in0.3 mm 0.18 in4.6 mm
08:30 AM 51.4°F10.8°C 50.3°F10.2°C 96% 1.0 mph WSW1.6 kmh WSW 3.0 mph4.8 kmh 29.77 in1008.1 mb - 0.00 in0.0 mm 0.03 in0.8 mm
08:40 AM 52.8°F11.6°C 52.8°F11.6°C 100% 5.0 mph W8.0 kmh W 7.0 mph11.3 kmh 29.83 in1010.2 mb - 0.00 in0.0 mm 0.19 in4.8 mm
08:50 AM 53.0°F11.7°C 53.0°F11.7°C 100% 3.0 mph W4.8 kmh W 8.0 mph12.9 kmh 29.83 in1010.2 mb - 0.01 in0.3 mm 0.20 in5.1 mm
09:00 AM 52.9°F11.6°C 52.9°F11.6°C 100% 2.0 mph W3.2 kmh W 3.0 mph4.8 kmh 29.83 in1010.2 mb - 0.00 in0.0 mm 0.20 in5.1 mm
09:10 AM 53.3°F11.8°C 53.3°F11.8°C 100% 6.0 mph W9.7 kmh W 9.0 mph14.5 kmh 29.83 in1010.2 mb - 0.01 in0.3 mm 0.21 in5.3 mm
09:20 AM 53.5°F11.9°C 53.5°F11.9°C 100% 6.0 mph W9.7 kmh W 8.0 mph12.9 kmh 29.83 in1010.2 mb - 0.00 in0.0 mm 0.21 in5.3 mm
09:30 AM 53.5°F11.9°C 53.5°F11.9°C 100% 5.0 mph WNW8.0 kmh WNW 8.0 mph12.9 kmh 29.84 in1010.5 mb - 0.00 in0.0 mm 0.21 in5.3 mm
09:50 AM 53.7°F12.1°C 53.7°F12.1°C 100% 5.0 mph WNW8.0 kmh WNW 7.0 mph11.3 kmh 29.84 in1010.5 mb - 0.00 in0.0 mm 0.21 in5.3 mm
10:00 AM 53.7°F12.1°C 53.7°F12.1°C 100% 3.0 mph NW4.8 kmh NW 5.0 mph8.0 kmh 29.84 in1010.5 mb - 0.00 in0.0 mm 0.21 in5.3 mm
10:10 AM 53.8°F12.1°C 53.8°F12.1°C 100% 3.0 mph NW4.8 kmh NW 5.0 mph8.0 kmh 29.84 in1010.5 mb - 0.00 in0.0 mm 0.21 in5.3 mm
10:20 AM 53.9°F12.2°C 53.9°F12.2°C 100% 5.0 mph NW8.0 kmh NW 7.0 mph11.3 kmh 29.84 in1010.5 mb - 0.00 in0.0 mm 0.21 in5.3 mm
10:30 AM 55.3°F12.9°C 55.3°F12.9°C 100% 3.0 mph NW4.8 kmh NW 7.0 mph11.3 kmh 29.84 in1010.5 mb - 0.00 in0.0 mm 0.21 in5.3 mm
10:40 AM 55.0°F12.8°C 55.0°F12.8°C 100% 5.0 mph NW8.0 kmh NW 9.0 mph14.5 kmh 29.84 in1010.5 mb - 0.00 in0.0 mm 0.21 in5.3 mm
10:50 AM 54.8°F12.7°C 54.8°F12.7°C 100% 5.0 mph NW8.0 kmh NW 6.0 mph9.7 kmh 29.84 in1010.5 mb - 0.00 in0.0 mm 0.21 in5.3 mm
11:00 AM 55.9°F13.3°C 55.9°F13.3°C 100% 3.0 mph NW4.8 kmh NW 6.0 mph9.7 kmh 29.84 in1010.5 mb - 0.00 in0.0 mm 0.21 in5.3 mm
11:10 AM 56.0°F13.3°C 56.0°F13.3°C 100% 6.0 mph WNW9.7 kmh WNW 8.0 mph12.9 kmh 29.84 in1010.5 mb - 0.00 in0.0 mm 0.21 in5.3 mm
11:20 AM 56.3°F13.5°C 56.3°F13.5°C 100% 5.0 mph NW8.0 kmh NW 7.0 mph11.3 kmh 29.84 in1010.5 mb - 0.00 in0.0 mm 0.21 in5.3 mm
11:30 AM 56.2°F13.4°C 56.0°F13.3°C 99% 5.0 mph NW8.0 kmh NW 6.0 mph9.7 kmh 29.84 in1010.5 mb - 0.00 in0.0 mm 0.21 in5.3 mm
11:40 AM 57.3°F14.1°C 57.0°F13.9°C 99% 2.0 mph NW3.2 kmh NW 3.0 mph4.8 kmh 29.84 in1010.5 mb - 0.00 in0.0 mm 0.21 in5.3 mm
11:50 AM 57.9°F14.4°C 57.6°F14.2°C 99% 2.0 mph NW3.2 kmh NW 6.0 mph9.7 kmh 29.84 in1010.5 mb - 0.00 in0.0 mm 0.21 in5.3 mm
12:00 PM 59.0°F15.0°C 58.5°F14.7°C 98% 3.0 mph WNW4.8 kmh WNW 7.0 mph11.3 kmh 29.84 in1010.5 mb - 0.00 in0.0 mm 0.21 in5.3 mm
12:10 PM 60.2°F15.7°C 59.1°F15.1°C 96% 5.0 mph NW8.0 kmh NW 12.0 mph19.3 kmh 29.84 in1010.5 mb - 0.00 in0.0 mm 0.21 in5.3 mm
12:20 PM 59.7°F15.4°C 57.1°F13.9°C 91% 3.0 mph NW4.8 kmh NW 5.0 mph8.0 kmh 29.84 in1010.5 mb - 0.00 in0.0 mm 0.21 in5.3 mm
12:30 PM 59.3°F15.2°C 56.4°F13.6°C 90% 3.0 mph NNW4.8 kmh NNW 9.0 mph14.5 kmh 29.84 in1010.5 mb - 0.00 in0.0 mm 0.21 in5.3 mm
12:40 PM 59.0°F15.0°C 56.4°F13.6°C 91% 5.0 mph NW8.0 kmh NW 6.0 mph9.7 kmh 29.84 in1010.5 mb - 0.00 in0.0 mm 0.21 in5.3 mm
12:50 PM 58.9°F14.9°C 56.3°F13.5°C 91% 5.0 mph NNW8.0 kmh NNW 8.0 mph12.9 kmh 29.84 in1010.5 mb - 0.00 in0.0 mm 0.21 in5.3 mm
01:00 PM 59.2°F15.1°C 56.9°F13.8°C 92% 1.0 mph N1.6 kmh N 3.0 mph4.8 kmh 29.84 in1010.5 mb - 0.00 in0.0 mm 0.21 in5.3 mm
01:10 PM 59.7°F15.4°C 56.8°F13.8°C 90% 2.0 mph NNW3.2 kmh NNW 6.0 mph9.7 kmh 29.84 in1010.5 mb - 0.00 in0.0 mm 0.21 in5.3 mm
01:20 PM 60.3°F15.7°C 57.0°F13.9°C 89% 1.0 mph N1.6 kmh N 6.0 mph9.7 kmh 29.84 in1010.5 mb - 0.00 in0.0 mm 0.21 in5.3 mm
01:30 PM 61.0°F16.1°C 56.2°F13.4°C 84% 3.0 mph N4.8 kmh N 5.0 mph8.0 kmh 29.84 in1010.5 mb - 0.00 in0.0 mm 0.21 in5.3 mm
01:40 PM 61.8°F16.6°C 57.6°F14.2°C 86% 3.0 mph NE4.8 kmh NE 8.0 mph12.9 kmh 29.84 in1010.5 mb - 0.00 in0.0 mm 0.21 in5.3 mm
01:50 PM 62.9°F17.2°C 57.0°F13.9°C 81% 3.0 mph NNW4.8 kmh NNW 9.0 mph14.5 kmh 29.84 in1010.5 mb - 0.00 in0.0 mm 0.21 in5.3 mm
02:00 PM 64.4°F18.0°C 57.8°F14.3°C 79% 5.0 mph NW8.0 kmh NW 6.0 mph9.7 kmh 29.84 in1010.5 mb - 0.00 in0.0 mm 0.21 in5.3 mm
02:10 PM 64.6°F18.1°C 57.3°F14.1°C 77% 1.0 mph N1.6 kmh N 3.0 mph4.8 kmh 29.84 in1010.5 mb - 0.00 in0.0 mm 0.21 in5.3 mm
02:20 PM 64.3°F17.9°C 55.5°F13.1°C 73% 5.0 mph NW8.0 kmh NW 7.0 mph11.3 kmh 29.84 in1010.5 mb - 0.00 in0.0 mm 0.21 in5.3 mm
02:30 PM 65.5°F18.6°C 56.3°F13.5°C 72% 3.0 mph NE4.8 kmh NE 5.0 mph8.0 kmh 29.84 in1010.5 mb - 0.00 in0.0 mm 0.21 in5.3 mm
02:40 PM 63.7°F17.6°C 55.6°F13.1°C 75% 3.0 mph NE4.8 kmh NE 5.0 mph8.0 kmh 29.84 in1010.5 mb - 0.00 in0.0 mm 0.21 in5.3 mm
02:50 PM 60.7°F15.9°C 54.9°F12.7°C 81% 3.0 mph E4.8 kmh E 3.0 mph4.8 kmh 29.84 in1010.5 mb - 0.00 in0.0 mm 0.21 in5.3 mm
03:00 PM 59.9°F15.5°C 55.7°F13.2°C 86% 1.0 mph ESE1.6 kmh ESE 3.0 mph4.8 kmh 29.84 in1010.5 mb - 0.00 in0.0 mm 0.21 in5.3 mm
03:10 PM 59.3°F15.2°C 55.5°F13.1°C 87% 3.0 mph SE4.8 kmh SE 7.0 mph11.3 kmh 29.84 in1010.5 mb - 0.00 in0.0 mm 0.21 in5.3 mm
03:20 PM 59.0°F15.0°C 55.7°F13.2°C 89% 5.0 mph S8.0 kmh S 6.0 mph9.7 kmh 29.84 in1010.5 mb - 0.00 in0.0 mm 0.21 in5.3 mm
03:30 PM 59.0°F15.0°C 56.1°F13.4°C 90% 2.0 mph SSE3.2 kmh SSE 6.0 mph9.7 kmh 29.84 in1010.5 mb - 0.00 in0.0 mm 0.21 in5.3 mm
03:40 PM 59.9°F15.5°C 56.6°F13.7°C 89% 1.0 mph S1.6 kmh S 2.0 mph3.2 kmh 29.84 in1010.5 mb - 0.00 in0.0 mm 0.21 in5.3 mm
03:50 PM 61.4°F16.3°C 56.5°F13.6°C 84% 2.0 mph S3.2 kmh S 3.0 mph4.8 kmh 29.84 in1010.5 mb - 0.00 in0.0 mm 0.21 in5.3 mm
04:00 PM 62.8°F17.1°C 56.2°F13.4°C 79% 3.0 mph S4.8 kmh S 5.0 mph8.0 kmh 29.84 in1010.5 mb - 0.00 in0.0 mm 0.21 in5.3 mm
04:10 PM 62.1°F16.7°C 55.2°F12.9°C 78% Calm Calm 2.0 mph3.2 kmh 29.84 in1010.5 mb - 0.00 in0.0 mm 0.21 in5.3 mm
04:20 PM 60.7°F15.9°C 53.8°F12.1°C 78% Calm Calm -- 29.83 in1010.2 mb - 0.00 in0.0 mm 0.21 in5.3 mm
04:30 PM 60.7°F15.9°C 54.1°F12.3°C 79% 1.0 mph S1.6 kmh S 3.0 mph4.8 kmh 29.83 in1010.2 mb - 0.00 in0.0 mm 0.21 in5.3 mm
04:40 PM 62.5°F16.9°C 55.5°F13.1°C 78% 3.0 mph S4.8 kmh S 3.0 mph4.8 kmh 29.84 in1010.5 mb - 0.00 in0.0 mm 0.21 in5.3 mm
04:50 PM 64.3°F17.9°C 57.3°F14.1°C 78% 6.0 mph SW9.7 kmh SW 9.0 mph14.5 kmh 29.84 in1010.5 mb - 0.00 in0.0 mm 0.21 in5.3 mm
05:00 PM 63.6°F17.6°C 55.9°F13.3°C 76% 5.0 mph SW8.0 kmh SW 6.0 mph9.7 kmh 29.84 in1010.5 mb - 0.00 in0.0 mm 0.21 in5.3 mm
05:10 PM 63.2°F17.3°C 55.2°F12.9°C 75% 2.0 mph SW3.2 kmh SW 3.0 mph4.8 kmh 29.84 in1010.5 mb - 0.00 in0.0 mm 0.21 in5.3 mm
05:20 PM 62.0°F16.7°C 55.4°F13.0°C 79% 2.0 mph SW3.2 kmh SW 5.0 mph8.0 kmh 29.84 in1010.5 mb - 0.00 in0.0 mm 0.21 in5.3 mm
05:30 PM 62.8°F17.1°C 55.5°F13.1°C 77% 3.0 mph SW4.8 kmh SW 6.0 mph9.7 kmh 29.84 in1010.5 mb - 0.00 in0.0 mm 0.21 in5.3 mm
05:40 PM 63.6°F17.6°C 55.9°F13.3°C 76% 1.0 mph SW1.6 kmh SW 2.0 mph3.2 kmh 29.84 in1010.5 mb - 0.00 in0.0 mm 0.21 in5.3 mm
05:50 PM 63.2°F17.3°C 55.1°F12.8°C 75% 3.0 mph SW4.8 kmh SW 6.0 mph9.7 kmh 29.83 in1010.2 mb - 0.00 in0.0 mm 0.21 in5.3 mm
06:00 PM 62.7°F17.1°C 55.0°F12.8°C 76% 3.0 mph SW4.8 kmh SW 5.0 mph8.0 kmh 29.83 in1010.2 mb - 0.00 in0.0 mm 0.21 in5.3 mm
06:10 PM 61.7°F16.5°C 55.5°F13.1°C 80% 3.0 mph SW4.8 kmh SW 5.0 mph8.0 kmh 29.83 in1010.2 mb - 0.00 in0.0 mm 0.21 in5.3 mm
06:20 PM 60.9°F16.1°C 55.0°F12.8°C 81% 1.0 mph SW1.6 kmh SW 3.0 mph4.8 kmh 29.83 in1010.2 mb - 0.00 in0.0 mm 0.21 in5.3 mm
06:30 PM 60.4°F15.8°C 55.2°F12.9°C 83% 1.0 mph SW1.6 kmh SW 5.0 mph8.0 kmh 29.83 in1010.2 mb - 0.00 in0.0 mm 0.21 in5.3 mm
06:40 PM 59.9°F15.5°C 55.0°F12.8°C 84% 2.0 mph SW3.2 kmh SW 3.0 mph4.8 kmh 29.83 in1010.2 mb - 0.00 in0.0 mm 0.21 in5.3 mm
06:50 PM 59.0°F15.0°C 54.8°F12.7°C 86% 2.0 mph SW3.2 kmh SW 5.0 mph8.0 kmh 29.84 in1010.5 mb - 0.00 in0.0 mm 0.21 in5.3 mm
07:00 PM 58.1°F14.5°C 54.2°F12.3°C 87% 1.0 mph SW1.6 kmh SW 3.0 mph4.8 kmh 29.84 in1010.5 mb - 0.00 in0.0 mm 0.21 in5.3 mm
07:10 PM 57.4°F14.1°C 53.9°F12.2°C 88% 1.0 mph SW1.6 kmh SW 3.0 mph4.8 kmh 29.84 in1010.5 mb - 0.00 in0.0 mm 0.21 in5.3 mm
07:30 PM 52.9°F11.6°C 48.2°F9.0°C 84% Calm Calm -- 29.80 in1009.1 mb - 0.00 in0.0 mm 0.03 in0.8 mm
08:00 PM 52.3°F11.3°C 48.2°F9.0°C 86% Calm Calm -- 29.81 in1009.5 mb - 0.00 in0.0 mm 0.03 in0.8 mm
08:30 PM 52.0°F11.1°C 47.6°F8.7°C 85% 0.2 mph WSW0.3 kmh WSW 1.0 mph1.6 kmh 29.82 in1009.8 mb - 0.00 in0.0 mm 0.03 in0.8 mm
09:00 PM 52.2°F11.2°C 47.8°F8.8°C 85% 0.2 mph WSW0.3 kmh WSW -- 29.82 in1009.8 mb - 0.00 in0.0 mm 0.03 in0.8 mm
09:30 PM 52.2°F11.2°C 48.4°F9.1°C 87% Calm Calm -- 29.83 in1010.2 mb - 0.00 in0.0 mm 0.03 in0.8 mm
10:00 PM 51.9°F11.1°C 48.8°F9.3°C 89% Calm Calm -- 29.83 in1010.2 mb - 0.00 in0.0 mm 0.03 in0.8 mm
10:30 PM 51.7°F10.9°C 48.9°F9.4°C 90% 0.7 mph WSW1.1 kmh WSW 2.0 mph3.2 kmh 29.83 in1010.2 mb - 0.00 in0.0 mm 0.03 in0.8 mm
11:00 PM 51.3°F10.7°C 49.1°F9.5°C 92% Calm Calm -- 29.83 in1010.2 mb - 0.00 in0.0 mm 0.24 in6.1 mm
11:30 PM 51.0°F10.6°C 49.0°F9.4°C 93% Calm Calm -- 29.83 in1010.2 mb - 0.00 in0.0 mm 0.24 in6.1 mm